Terminal Aerodrome Forecast
Issued by NWS Kansas City/Pleasant Hill, MO

Home | Current Version | Previous Version | Text Only | Print | Product List | Glossary On
Versions: 1 2 3 4 5 6 7 8 9 10 11 12 13 14 15
000
FTUS43 KEAX 271000 AAA
TAFMCI
TAF AMD
KMCI 271009Z 2710/2806 01011KT P6SM SCT015 OVC030
      TEMPO 2710/2712 OVC015
     FM271200 01007KT P6SM SCT040
     FM272100 08004KT P6SM BKN150=

USA.gov is the U.S. government's official web portal to all federal, state and local government web resources and services.